sensor_id;sensor_type;location;lat;lon;timestamp;pressure;altitude;pressure_sealevel;temperature;humidity
35758;BME280;21879;50.110;18.900;2023-02-22T00:02:04;98644.30;;;7.16;63.66
35758;BME280;21879;50.110;18.900;2023-02-22T00:12:36;98646.65;;;6.95;63.48
35758;BME280;21879;50.110;18.900;2023-02-22T00:23:01;98647.30;;;6.86;63.70
35758;BME280;21879;50.110;18.900;2023-02-22T00:33:26;98646.17;;;6.67;64.15
35758;BME280;21879;50.110;18.900;2023-02-22T00:43:51;98650.84;;;6.68;64.60
35758;BME280;21879;50.110;18.900;2023-02-22T00:54:16;98652.67;;;6.55;64.73
35758;BME280;21879;50.110;18.900;2023-02-22T01:04:43;98654.20;;;6.51;64.97
35758;BME280;21879;50.110;18.900;2023-02-22T01:15:10;98646.04;;;6.45;64.81
35758;BME280;21879;50.110;18.900;2023-02-22T01:25:35;98651.16;;;6.33;64.37
35758;BME280;21879;50.110;18.900;2023-02-22T01:36:00;98650.23;;;6.01;64.29
35758;BME280;21879;50.110;18.900;2023-02-22T01:46:26;98645.15;;;5.74;64.19
35758;BME280;21879;50.110;18.900;2023-02-22T01:56:55;98650.80;;;5.52;64.48
35758;BME280;21879;50.110;18.900;2023-02-22T02:07:24;98649.88;;;5.45;64.67
35758;BME280;21879;50.110;18.900;2023-02-22T02:17:50;98650.64;;;5.35;64.74
35758;BME280;21879;50.110;18.900;2023-02-22T02:28:36;98651.09;;;5.28;64.74
35758;BME280;21879;50.110;18.900;2023-02-22T02:39:09;98647.48;;;5.15;64.85
35758;BME280;21879;50.110;18.900;2023-02-22T02:49:40;98650.73;;;5.13;64.92
35758;BME280;21879;50.110;18.900;2023-02-22T03:00:10;98649.34;;;5.28;65.04
35758;BME280;21879;50.110;18.900;2023-02-22T03:10:52;98654.45;;;5.39;64.69
35758;BME280;21879;50.110;18.900;2023-02-22T03:21:24;98659.34;;;5.44;64.57
35758;BME280;21879;50.110;18.900;2023-02-22T03:31:53;98660.27;;;5.34;64.20
35758;BME280;21879;50.110;18.900;2023-02-22T03:42:28;98662.94;;;5.26;64.36
35758;BME280;21879;50.110;18.900;2023-02-22T03:52:55;98675.02;;;5.11;64.60
35758;BME280;21879;50.110;18.900;2023-02-22T04:03:22;98682.13;;;5.00;64.30
35758;BME280;21879;50.110;18.900;2023-02-22T04:13:47;98678.98;;;4.83;64.41
35758;BME280;21879;50.110;18.900;2023-02-22T04:24:11;98686.70;;;4.69;64.15
35758;BME280;21879;50.110;18.900;2023-02-22T04:34:36;98681.13;;;4.50;63.97
35758;BME280;21879;50.110;18.900;2023-02-22T04:45:01;98677.27;;;4.34;64.32
35758;BME280;21879;50.110;18.900;2023-02-22T04:55:26;98676.18;;;4.31;64.48
35758;BME280;21879;50.110;18.900;2023-02-22T05:05:51;98679.73;;;4.27;64.33
35758;BME280;21879;50.110;18.900;2023-02-22T05:16:17;98679.73;;;4.15;64.08
35758;BME280;21879;50.110;18.900;2023-02-22T05:26:42;98675.63;;;4.07;64.28
35758;BME280;21879;50.110;18.900;2023-02-22T05:37:07;98678.69;;;4.14;64.60
35758;BME280;21879;50.110;18.900;2023-02-22T05:47:32;98686.91;;;4.12;64.43
35758;BME280;21879;50.110;18.900;2023-02-22T05:57:56;98697.48;;;4.07;64.49
35758;BME280;21879;50.110;18.900;2023-02-22T06:08:21;98706.05;;;4.04;64.37
35758;BME280;21879;50.110;18.900;2023-02-22T06:18:46;98717.80;;;3.97;64.45
35758;BME280;21879;50.110;18.900;2023-02-22T06:29:11;98728.52;;;4.00;64.48
35758;BME280;21879;50.110;18.900;2023-02-22T06:39:36;98747.94;;;4.08;64.79
35758;BME280;21879;50.110;18.900;2023-02-22T06:50:00;98758.55;;;4.14;64.87
35758;BME280;21879;50.110;18.900;2023-02-22T07:00:27;98767.91;;;4.20;64.97
35758;BME280;21879;50.110;18.900;2023-02-22T07:10:52;98771.52;;;4.19;65.11
35758;BME280;21879;50.110;18.900;2023-02-22T07:21:16;98777.63;;;4.04;65.35
35758;BME280;21879;50.110;18.900;2023-02-22T07:31:42;98779.98;;;4.01;65.98
35758;BME280;21879;50.110;18.900;2023-02-22T07:42:07;98781.15;;;4.19;66.56
35758;BME280;21879;50.110;18.900;2023-02-22T07:52:32;98778.69;;;4.37;66.83
35758;BME280;21879;50.110;18.900;2023-02-22T08:02:57;98781.66;;;4.50;67.21
35758;BME280;21879;50.110;18.900;2023-02-22T08:13:22;98775.54;;;4.77;67.51
35758;BME280;21879;50.110;18.900;2023-02-22T08:23:51;98777.05;;;5.11;67.90
35758;BME280;21879;50.110;18.900;2023-02-22T08:34:16;98782.63;;;5.42;68.18
35758;BME280;21879;50.110;18.900;2023-02-22T08:44:41;98782.80;;;5.72;68.63
35758;BME280;21879;50.110;18.900;2023-02-22T08:55:07;98785.95;;;6.07;68.95
35758;BME280;21879;50.110;18.900;2023-02-22T09:05:32;98784.55;;;6.42;69.19
35758;BME280;21879;50.110;18.900;2023-02-22T09:15:56;98788.03;;;6.68;69.05
35758;BME280;21879;50.110;18.900;2023-02-22T09:26:21;98788.10;;;6.78;68.91
35758;BME280;21879;50.110;18.900;2023-02-22T09:36:47;98792.60;;;7.06;68.90
35758;BME280;21879;50.110;18.900;2023-02-22T09:47:15;98790.46;;;7.25;68.68
35758;BME280;21879;50.110;18.900;2023-02-22T09:57:42;98783.46;;;7.44;68.28
35758;BME280;21879;50.110;18.900;2023-02-22T10:08:12;98778.30;;;7.53;67.71
35758;BME280;21879;50.110;18.900;2023-02-22T10:19:12;98771.52;;;7.43;66.44
35758;BME280;21879;50.110;18.900;2023-02-22T10:29:40;98764.80;;;7.47;65.60
35758;BME280;21879;50.110;18.900;2023-02-22T10:40:13;98759.17;;;7.76;64.42
35758;BME280;21879;50.110;18.900;2023-02-22T10:50:42;98752.45;;;7.85;63.22
35758;BME280;21879;50.110;18.900;2023-02-22T11:01:22;98744.52;;;8.08;62.00
35758;BME280;21879;50.110;18.900;2023-02-22T11:11:50;98740.73;;;8.20;60.92
35758;BME280;21879;50.110;18.900;2023-02-22T11:22:35;98741.92;;;8.11;59.99
35758;BME280;21879;50.110;18.900;2023-02-22T11:33:12;98732.06;;;8.15;59.99
35758;BME280;21879;50.110;18.900;2023-02-22T11:43:40;98723.57;;;8.24;59.92
35758;BME280;21879;50.110;18.900;2023-02-22T11:54:20;98720.29;;;8.20;59.20
35758;BME280;21879;50.110;18.900;2023-02-22T12:15:45;98717.86;;;8.26;57.93
35758;BME280;21879;50.110;18.900;2023-02-22T12:26:23;98714.73;;;8.25;57.62
35758;BME280;21879;50.110;18.900;2023-02-22T12:36:50;98713.17;;;8.35;57.61
35758;BME280;21879;50.110;18.900;2023-02-22T12:47:17;98713.37;;;8.41;57.75
35758;BME280;21879;50.110;18.900;2023-02-22T12:57:48;98709.21;;;8.53;57.28
35758;BME280;21879;50.110;18.900;2023-02-22T13:08:33;98701.92;;;8.64;56.84
35758;BME280;21879;50.110;18.900;2023-02-22T13:19:05;98699.66;;;8.58;56.24
35758;BME280;21879;50.110;18.900;2023-02-22T13:29:35;98699.30;;;8.72;56.19
35758;BME280;21879;50.110;18.900;2023-02-22T13:40:26;98697.53;;;8.83;55.92
35758;BME280;21879;50.110;18.900;2023-02-22T13:51:09;98690.29;;;8.75;55.36
35758;BME280;21879;50.110;18.900;2023-02-22T14:01:40;98690.43;;;8.85;55.49
35758;BME280;21879;50.110;18.900;2023-02-22T14:12:05;98694.34;;;9.07;56.08
35758;BME280;21879;50.110;18.900;2023-02-22T14:22:29;98691.87;;;9.18;55.69
35758;BME280;21879;50.110;18.900;2023-02-22T14:32:54;98686.39;;;8.99;54.82
35758;BME280;21879;50.110;18.900;2023-02-22T14:43:21;98691.50;;;8.69;54.59
35758;BME280;21879;50.110;18.900;2023-02-22T14:53:49;98695.67;;;8.70;55.27
35758;BME280;21879;50.110;18.900;2023-02-22T15:04:20;98698.27;;;8.74;54.95
35758;BME280;21879;50.110;18.900;2023-02-22T15:14:45;98696.71;;;8.63;54.78
35758;BME280;21879;50.110;18.900;2023-02-22T15:25:11;98695.11;;;8.79;55.10
35758;BME280;21879;50.110;18.900;2023-02-22T15:35:36;98689.36;;;8.95;54.85
35758;BME280;21879;50.110;18.900;2023-02-22T15:46:00;98694.94;;;8.86;54.66
35758;BME280;21879;50.110;18.900;2023-02-22T15:56:28;98692.48;;;8.93;54.72
35758;BME280;21879;50.110;18.900;2023-02-22T16:07:00;98695.56;;;9.07;55.07
35758;BME280;21879;50.110;18.900;2023-02-22T16:17:40;98701.23;;;9.16;54.72
35758;BME280;21879;50.110;18.900;2023-02-22T16:28:27;98695.88;;;9.12;54.27
35758;BME280;21879;50.110;18.900;2023-02-22T16:38:53;98705.65;;;8.97;54.36
35758;BME280;21879;50.110;18.900;2023-02-22T16:49:17;98715.73;;;8.87;54.49
35758;BME280;21879;50.110;18.900;2023-02-22T16:59:43;98722.88;;;8.68;54.29
35758;BME280;21879;50.110;18.900;2023-02-22T17:10:15;98721.34;;;8.51;54.15
35758;BME280;21879;50.110;18.900;2023-02-22T17:20:39;98723.92;;;8.25;54.19
35758;BME280;21879;50.110;18.900;2023-02-22T17:31:05;98728.23;;;8.01;54.30
35758;BME280;21879;50.110;18.900;2023-02-22T17:41:29;98728.02;;;7.80;54.67
35758;BME280;21879;50.110;18.900;2023-02-22T17:51:54;98734.89;;;7.58;54.92
35758;BME280;21879;50.110;18.900;2023-02-22T18:02:18;98732.70;;;7.25;55.74
35758;BME280;21879;50.110;18.900;2023-02-22T18:12:43;98731.23;;;7.07;56.19
35758;BME280;21879;50.110;18.900;2023-02-22T18:23:10;98736.56;;;7.00;56.66
35758;BME280;21879;50.110;18.900;2023-02-22T18:33:35;98739.91;;;6.83;56.93
35758;BME280;21879;50.110;18.900;2023-02-22T18:44:00;98734.48;;;6.70;57.15
35758;BME280;21879;50.110;18.900;2023-02-22T18:54:25;98736.16;;;6.63;56.81
35758;BME280;21879;50.110;18.900;2023-02-22T19:04:50;98728.05;;;6.39;57.17
35758;BME280;21879;50.110;18.900;2023-02-22T19:15:15;98731.62;;;6.32;57.88
35758;BME280;21879;50.110;18.900;2023-02-22T19:25:40;98733.89;;;6.15;58.15
35758;BME280;21879;50.110;18.900;2023-02-22T19:36:07;98736.73;;;6.04;58.31
35758;BME280;21879;50.110;18.900;2023-02-22T19:46:32;98730.43;;;5.95;58.41
35758;BME280;21879;50.110;18.900;2023-02-22T19:56:56;98744.19;;;5.75;58.95
35758;BME280;21879;50.110;18.900;2023-02-22T20:07:22;98741.90;;;5.87;59.62
35758;BME280;21879;50.110;18.900;2023-02-22T20:17:46;98739.36;;;5.93;59.32
35758;BME280;21879;50.110;18.900;2023-02-22T20:28:13;98741.83;;;5.95;58.89
35758;BME280;21879;50.110;18.900;2023-02-22T20:38:38;98741.56;;;5.88;58.68
35758;BME280;21879;50.110;18.900;2023-02-22T20:49:05;98740.42;;;5.79;58.45
35758;BME280;21879;50.110;18.900;2023-02-22T20:59:31;98744.48;;;5.54;58.65
35758;BME280;21879;50.110;18.900;2023-02-22T21:09:55;98747.86;;;5.34;58.77
35758;BME280;21879;50.110;18.900;2023-02-22T21:20:20;98746.63;;;5.17;58.91
35758;BME280;21879;50.110;18.900;2023-02-22T21:30:46;98744.55;;;5.04;58.96
35758;BME280;21879;50.110;18.900;2023-02-22T21:41:12;98738.21;;;4.94;59.14
35758;BME280;21879;50.110;18.900;2023-02-22T21:51:36;98729.27;;;4.94;59.25
35758;BME280;21879;50.110;18.900;2023-02-22T22:02:01;98722.55;;;4.95;59.26
35758;BME280;21879;50.110;18.900;2023-02-22T22:12:26;98719.20;;;4.89;59.24
35758;BME280;21879;50.110;18.900;2023-02-22T22:23:04;98712.27;;;4.87;59.08
35758;BME280;21879;50.110;18.900;2023-02-22T22:33:28;98714.23;;;4.66;58.77
35758;BME280;21879;50.110;18.900;2023-02-22T22:43:53;98707.70;;;4.67;58.93
35758;BME280;21879;50.110;18.900;2023-02-22T22:54:18;98714.57;;;4.66;59.07
35758;BME280;21879;50.110;18.900;2023-02-22T23:04:43;98721.34;;;4.58;59.17
35758;BME280;21879;50.110;18.900;2023-02-22T23:15:09;98716.36;;;4.47;59.19
35758;BME280;21879;50.110;18.900;2023-02-22T23:25:36;98719.42;;;4.43;59.38
35758;BME280;21879;50.110;18.900;2023-02-22T23:36:01;98724.84;;;4.49;59.33
35758;BME280;21879;50.110;18.900;2023-02-22T23:46:27;98721.98;;;4.55;59.06
35758;BME280;21879;50.110;18.900;2023-02-22T23:56:55;98721.16;;;4.34;59.01
